sensor_id;sensor_type;location;lat;lon;timestamp;temperature;humidity
36710;DHT22;22694;51.040;3.684;2023-02-28T00:01:21;15.70;58.90
36710;DHT22;22694;51.040;3.684;2023-02-28T00:03:48;15.70;58.80
36710;DHT22;22694;51.040;3.684;2023-02-28T00:06:13;15.70;58.90
36710;DHT22;22694;51.040;3.684;2023-02-28T00:08:39;15.70;59.10
36710;DHT22;22694;51.040;3.684;2023-02-28T00:11:07;15.60;59.30
36710;DHT22;22694;51.040;3.684;2023-02-28T00:13:34;15.50;59.50
36710;DHT22;22694;51.040;3.684;2023-02-28T00:16:09;15.50;59.20
36710;DHT22;22694;51.040;3.684;2023-02-28T00:18:35;15.60;59.20
36710;DHT22;22694;51.040;3.684;2023-02-28T00:21:01;15.60;58.90
36710;DHT22;22694;51.040;3.684;2023-02-28T00:23:27;15.70;58.80
36710;DHT22;22694;51.040;3.684;2023-02-28T00:25:53;15.60;58.90
36710;DHT22;22694;51.040;3.684;2023-02-28T00:28:19;15.60;59.10
36710;DHT22;22694;51.040;3.684;2023-02-28T00:30:45;15.50;59.40
36710;DHT22;22694;51.040;3.684;2023-02-28T00:33:11;15.40;59.30
36710;DHT22;22694;51.040;3.684;2023-02-28T00:35:36;15.50;59.20
36710;DHT22;22694;51.040;3.684;2023-02-28T00:38:02;15.60;59.10
36710;DHT22;22694;51.040;3.684;2023-02-28T00:40:28;15.60;58.90
36710;DHT22;22694;51.040;3.684;2023-02-28T00:42:54;15.60;58.80
36710;DHT22;22694;51.040;3.684;2023-02-28T00:45:20;15.60;59.00
36710;DHT22;22694;51.040;3.684;2023-02-28T00:47:46;15.50;59.30
36710;DHT22;22694;51.040;3.684;2023-02-28T00:50:16;15.40;59.50
36710;DHT22;22694;51.040;3.684;2023-02-28T00:52:42;15.40;59.30
36710;DHT22;22694;51.040;3.684;2023-02-28T00:55:08;15.40;59.10
36710;DHT22;22694;51.040;3.684;2023-02-28T00:57:33;15.50;58.80
36710;DHT22;22694;51.040;3.684;2023-02-28T00:59:59;15.60;58.70
36710;DHT22;22694;51.040;3.684;2023-02-28T01:02:25;15.60;58.60
36710;DHT22;22694;51.040;3.684;2023-02-28T01:04:50;15.60;58.80
36710;DHT22;22694;51.040;3.684;2023-02-28T01:07:16;15.50;59.10
36710;DHT22;22694;51.040;3.684;2023-02-28T01:09:42;15.40;59.20
36710;DHT22;22694;51.040;3.684;2023-02-28T01:12:08;15.30;59.30
36710;DHT22;22694;51.040;3.684;2023-02-28T01:14:34;15.40;59.10
36710;DHT22;22694;51.040;3.684;2023-02-28T01:17:00;15.50;58.80
36710;DHT22;22694;51.040;3.684;2023-02-28T01:19:26;15.50;58.60
36710;DHT22;22694;51.040;3.684;2023-02-28T01:21:52;15.50;58.60
36710;DHT22;22694;51.040;3.684;2023-02-28T01:24:18;15.50;58.80
36710;DHT22;22694;51.040;3.684;2023-02-28T01:26:44;15.40;59.00
36710;DHT22;22694;51.040;3.684;2023-02-28T01:29:09;15.30;59.30
36710;DHT22;22694;51.040;3.684;2023-02-28T01:31:35;15.30;59.10
36710;DHT22;22694;51.040;3.684;2023-02-28T01:34:01;15.30;59.00
36710;DHT22;22694;51.040;3.684;2023-02-28T01:36:26;15.40;58.70
36710;DHT22;22694;51.040;3.684;2023-02-28T01:38:52;15.50;58.60
36710;DHT22;22694;51.040;3.684;2023-02-28T01:41:29;15.50;58.60
36710;DHT22;22694;51.040;3.684;2023-02-28T01:44:01;15.50;58.80
36710;DHT22;22694;51.040;3.684;2023-02-28T01:46:29;15.30;59.10
36710;DHT22;22694;51.040;3.684;2023-02-28T01:49:09;15.30;59.30
36710;DHT22;22694;51.040;3.684;2023-02-28T01:51:51;15.20;59.00
36710;DHT22;22694;51.040;3.684;2023-02-28T01:54:27;15.30;58.90
36710;DHT22;22694;51.040;3.684;2023-02-28T01:57:06;15.40;58.60
36710;DHT22;22694;51.040;3.684;2023-02-28T01:59:43;15.40;58.60
36710;DHT22;22694;51.040;3.684;2023-02-28T02:02:12;15.40;58.70
36710;DHT22;22694;51.040;3.684;2023-02-28T02:04:51;15.40;58.90
36710;DHT22;22694;51.040;3.684;2023-02-28T02:07:18;15.30;59.30
36710;DHT22;22694;51.040;3.684;2023-02-28T02:09:44;15.20;59.00
36710;DHT22;22694;51.040;3.684;2023-02-28T02:15:23;15.30;58.60
36710;DHT22;22694;51.040;3.684;2023-02-28T02:17:53;15.40;58.60
36710;DHT22;22694;51.040;3.684;2023-02-28T02:25:58;15.20;59.20
36710;DHT22;22694;51.040;3.684;2023-02-28T02:34:27;15.30;58.60
36710;DHT22;22694;51.040;3.684;2023-02-28T02:39:53;15.30;58.70
36710;DHT22;22694;51.040;3.684;2023-02-28T02:45:11;15.20;59.30
36710;DHT22;22694;51.040;3.684;2023-02-28T02:47:39;15.10;59.00
36710;DHT22;22694;51.040;3.684;2023-02-28T02:50:10;15.20;58.70
36710;DHT22;22694;51.040;3.684;2023-02-28T02:52:42;15.20;58.50
36710;DHT22;22694;51.040;3.684;2023-02-28T02:55:09;15.30;58.50
36710;DHT22;22694;51.040;3.684;2023-02-28T03:00:09;15.20;58.70
36710;DHT22;22694;51.040;3.684;2023-02-28T03:02:37;15.20;59.10
36710;DHT22;22694;51.040;3.684;2023-02-28T03:05:17;15.10;59.20
36710;DHT22;22694;51.040;3.684;2023-02-28T03:07:44;15.10;58.80
36710;DHT22;22694;51.040;3.684;2023-02-28T03:10:39;15.20;58.70
36710;DHT22;22694;51.040;3.684;2023-02-28T03:13:16;15.20;58.40
36710;DHT22;22694;51.040;3.684;2023-02-28T03:27:30;15.10;58.70
36710;DHT22;22694;51.040;3.684;2023-02-28T03:32:55;15.20;58.40
36710;DHT22;22694;51.040;3.684;2023-02-28T03:35:25;15.20;59.00
36710;DHT22;22694;51.040;3.684;2023-02-28T03:37:59;15.10;58.60
36710;DHT22;22694;51.040;3.684;2023-02-28T03:40:30;15.10;59.00
36710;DHT22;22694;51.040;3.684;2023-02-28T03:43:03;15.00;58.90
36710;DHT22;22694;51.040;3.684;2023-02-28T03:45:32;15.10;58.60
36710;DHT22;22694;51.040;3.684;2023-02-28T03:48:02;15.10;58.40
36710;DHT22;22694;51.040;3.684;2023-02-28T03:50:43;15.20;58.30
36710;DHT22;22694;51.040;3.684;2023-02-28T03:55:54;15.20;58.60
36710;DHT22;22694;51.040;3.684;2023-02-28T03:58:31;15.10;58.80
36710;DHT22;22694;51.040;3.684;2023-02-28T04:03:44;15.00;58.90
36710;DHT22;22694;51.040;3.684;2023-02-28T04:06:16;15.10;58.70
36710;DHT22;22694;51.040;3.684;2023-02-28T04:08:43;15.20;58.70
36710;DHT22;22694;51.040;3.684;2023-02-28T04:13:44;15.20;58.80
36710;DHT22;22694;51.040;3.684;2023-02-28T04:16:10;15.10;58.90
36710;DHT22;22694;51.040;3.684;2023-02-28T04:18:38;15.10;59.10
36710;DHT22;22694;51.040;3.684;2023-02-28T04:21:04;15.10;58.90
36710;DHT22;22694;51.040;3.684;2023-02-28T04:23:30;15.20;58.70
36710;DHT22;22694;51.040;3.684;2023-02-28T04:25:56;15.20;58.40
36710;DHT22;22694;51.040;3.684;2023-02-28T04:28:22;15.30;58.50
36710;DHT22;22694;51.040;3.684;2023-02-28T04:30:54;15.30;58.60
36710;DHT22;22694;51.040;3.684;2023-02-28T04:33:20;15.30;58.70
36710;DHT22;22694;51.040;3.684;2023-02-28T04:35:45;15.20;58.90
36710;DHT22;22694;51.040;3.684;2023-02-28T04:38:11;15.10;58.80
36710;DHT22;22694;51.040;3.684;2023-02-28T04:40:36;15.20;58.70
36710;DHT22;22694;51.040;3.684;2023-02-28T04:43:02;15.30;58.40
36710;DHT22;22694;51.040;3.684;2023-02-28T04:45:28;15.30;58.20
36710;DHT22;22694;51.040;3.684;2023-02-28T04:47:57;15.30;58.30
36710;DHT22;22694;51.040;3.684;2023-02-28T04:50:23;15.30;58.40
36710;DHT22;22694;51.040;3.684;2023-02-28T04:52:49;15.30;58.50
36710;DHT22;22694;51.040;3.684;2023-02-28T04:55:14;15.20;58.70
36710;DHT22;22694;51.040;3.684;2023-02-28T04:57:40;15.20;58.60
36710;DHT22;22694;51.040;3.684;2023-02-28T05:00:09;15.30;58.50
36710;DHT22;22694;51.040;3.684;2023-02-28T05:02:37;15.30;58.30
36710;DHT22;22694;51.040;3.684;2023-02-28T05:05:04;15.40;58.20
36710;DHT22;22694;51.040;3.684;2023-02-28T05:07:30;15.40;58.10
36710;DHT22;22694;51.040;3.684;2023-02-28T05:09:55;15.30;58.20
36710;DHT22;22694;51.040;3.684;2023-02-28T05:12:21;15.30;58.40
36710;DHT22;22694;51.040;3.684;2023-02-28T05:14:47;15.20;58.60
36710;DHT22;22694;51.040;3.684;2023-02-28T05:17:12;15.30;58.60
36710;DHT22;22694;51.040;3.684;2023-02-28T05:19:38;15.30;58.30
36710;DHT22;22694;51.040;3.684;2023-02-28T05:22:03;15.40;58.10
36710;DHT22;22694;51.040;3.684;2023-02-28T05:24:29;15.50;58.00
36710;DHT22;22694;51.040;3.684;2023-02-28T05:26:55;15.50;58.10
36710;DHT22;22694;51.040;3.684;2023-02-28T05:29:21;15.40;58.10
36710;DHT22;22694;51.040;3.684;2023-02-28T05:31:47;15.30;58.30
36710;DHT22;22694;51.040;3.684;2023-02-28T05:34:12;15.30;58.50
36710;DHT22;22694;51.040;3.684;2023-02-28T05:36:40;15.30;58.40
36710;DHT22;22694;51.040;3.684;2023-02-28T05:39:06;15.40;58.30
36710;DHT22;22694;51.040;3.684;2023-02-28T05:41:42;15.50;58.10
36710;DHT22;22694;51.040;3.684;2023-02-28T05:44:08;15.40;57.90
36710;DHT22;22694;51.040;3.684;2023-02-28T05:46:33;15.50;58.10
36710;DHT22;22694;51.040;3.684;2023-02-28T05:48:59;15.40;58.30
36710;DHT22;22694;51.040;3.684;2023-02-28T05:51:29;15.30;58.50
36710;DHT22;22694;51.040;3.684;2023-02-28T05:53:54;15.30;58.40
36710;DHT22;22694;51.040;3.684;2023-02-28T05:56:27;15.40;58.20
36710;DHT22;22694;51.040;3.684;2023-02-28T05:58:54;15.50;58.00
36710;DHT22;22694;51.040;3.684;2023-02-28T06:04:01;15.70;57.90
36710;DHT22;22694;51.040;3.684;2023-02-28T06:06:28;15.70;58.20
36710;DHT22;22694;51.040;3.684;2023-02-28T06:08:55;15.60;58.30
36710;DHT22;22694;51.040;3.684;2023-02-28T06:11:21;15.50;58.50
36710;DHT22;22694;51.040;3.684;2023-02-28T06:13:54;15.60;58.40
36710;DHT22;22694;51.040;3.684;2023-02-28T06:16:20;15.70;58.10
36710;DHT22;22694;51.040;3.684;2023-02-28T06:18:46;15.80;57.90
36710;DHT22;22694;51.040;3.684;2023-02-28T06:21:12;15.80;57.80
36710;DHT22;22694;51.040;3.684;2023-02-28T06:23:38;15.80;57.90
36710;DHT22;22694;51.040;3.684;2023-02-28T06:26:04;15.70;58.00
36710;DHT22;22694;51.040;3.684;2023-02-28T06:28:31;15.70;58.40
36710;DHT22;22694;51.040;3.684;2023-02-28T06:30:57;15.70;58.50
36710;DHT22;22694;51.040;3.684;2023-02-28T06:33:23;15.70;58.30
36710;DHT22;22694;51.040;3.684;2023-02-28T06:35:52;15.80;58.00
36710;DHT22;22694;51.040;3.684;2023-02-28T06:38:18;15.90;57.80
36710;DHT22;22694;51.040;3.684;2023-02-28T06:40:44;15.90;57.80
36710;DHT22;22694;51.040;3.684;2023-02-28T06:43:10;15.90;57.70
36710;DHT22;22694;51.040;3.684;2023-02-28T06:45:43;15.80;57.90
36710;DHT22;22694;51.040;3.684;2023-02-28T06:48:09;15.80;58.10
36710;DHT22;22694;51.040;3.684;2023-02-28T06:50:35;15.80;58.50
36710;DHT22;22694;51.040;3.684;2023-02-28T06:53:01;16.00;58.50
36710;DHT22;22694;51.040;3.684;2023-02-28T06:55:27;16.00;58.00
36710;DHT22;22694;51.040;3.684;2023-02-28T06:57:52;16.10;57.80
36710;DHT22;22694;51.040;3.684;2023-02-28T07:00:20;16.10;59.40
36710;DHT22;22694;51.040;3.684;2023-02-28T07:02:46;16.10;57.70
36710;DHT22;22694;51.040;3.684;2023-02-28T07:05:12;16.10;57.50
36710;DHT22;22694;51.040;3.684;2023-02-28T07:07:39;16.00;57.80
36710;DHT22;22694;51.040;3.684;2023-02-28T07:10:10;16.00;57.80
36710;DHT22;22694;51.040;3.684;2023-02-28T07:12:36;16.10;57.70
36710;DHT22;22694;51.040;3.684;2023-02-28T07:15:06;16.20;57.50
36710;DHT22;22694;51.040;3.684;2023-02-28T07:17:31;16.20;57.20
36710;DHT22;22694;51.040;3.684;2023-02-28T07:19:57;16.20;57.30
36710;DHT22;22694;51.040;3.684;2023-02-28T07:22:23;16.10;57.50
36710;DHT22;22694;51.040;3.684;2023-02-28T07:24:48;16.10;57.60
36710;DHT22;22694;51.040;3.684;2023-02-28T07:27:14;16.00;58.30
36710;DHT22;22694;51.040;3.684;2023-02-28T07:29:49;16.10;58.20
36710;DHT22;22694;51.040;3.684;2023-02-28T07:32:15;16.20;57.90
36710;DHT22;22694;51.040;3.684;2023-02-28T07:34:41;16.20;58.00
36710;DHT22;22694;51.040;3.684;2023-02-28T07:37:07;16.20;57.80
36710;DHT22;22694;51.040;3.684;2023-02-28T07:39:32;16.20;57.90
36710;DHT22;22694;51.040;3.684;2023-02-28T07:41:58;16.20;57.50
36710;DHT22;22694;51.040;3.684;2023-02-28T07:44:25;16.10;57.20
36710;DHT22;22694;51.040;3.684;2023-02-28T07:46:51;16.00;57.90
36710;DHT22;22694;51.040;3.684;2023-02-28T07:49:18;15.90;58.40
36710;DHT22;22694;51.040;3.684;2023-02-28T07:51:43;15.80;58.20
36710;DHT22;22694;51.040;3.684;2023-02-28T07:54:09;15.70;58.70
36710;DHT22;22694;51.040;3.684;2023-02-28T07:56:35;15.60;58.90
36710;DHT22;22694;51.040;3.684;2023-02-28T07:59:00;15.50;59.80
36710;DHT22;22694;51.040;3.684;2023-02-28T08:01:27;15.40;59.10
36710;DHT22;22694;51.040;3.684;2023-02-28T08:03:52;15.30;59.40
36710;DHT22;22694;51.040;3.684;2023-02-28T08:06:21;15.10;60.20
36710;DHT22;22694;51.040;3.684;2023-02-28T08:08:48;14.90;60.30
36710;DHT22;22694;51.040;3.684;2023-02-28T08:11:14;14.80;60.60
36710;DHT22;22694;51.040;3.684;2023-02-28T08:13:41;14.60;60.80
36710;DHT22;22694;51.040;3.684;2023-02-28T08:16:11;14.50;60.90
36710;DHT22;22694;51.040;3.684;2023-02-28T08:18:37;14.50;60.40
36710;DHT22;22694;51.040;3.684;2023-02-28T08:21:09;14.70;73.20
36710;DHT22;22694;51.040;3.684;2023-02-28T08:23:35;14.80;68.40
36710;DHT22;22694;51.040;3.684;2023-02-28T08:26:02;14.70;60.50
36710;DHT22;22694;51.040;3.684;2023-02-28T08:28:27;14.60;60.70
36710;DHT22;22694;51.040;3.684;2023-02-28T08:30:54;14.50;60.90
36710;DHT22;22694;51.040;3.684;2023-02-28T08:33:19;14.30;61.30
36710;DHT22;22694;51.040;3.684;2023-02-28T08:35:45;14.10;61.70
36710;DHT22;22694;51.040;3.684;2023-02-28T08:38:11;14.10;62.00
36710;DHT22;22694;51.040;3.684;2023-02-28T08:40:36;14.00;62.10
36710;DHT22;22694;51.040;3.684;2023-02-28T08:43:02;13.90;62.30
36710;DHT22;22694;51.040;3.684;2023-02-28T08:45:27;13.80;62.50
36710;DHT22;22694;51.040;3.684;2023-02-28T08:47:54;13.70;62.70
36710;DHT22;22694;51.040;3.684;2023-02-28T08:50:20;13.70;62.80
36710;DHT22;22694;51.040;3.684;2023-02-28T08:52:47;13.60;62.90
36710;DHT22;22694;51.040;3.684;2023-02-28T08:55:12;13.60;63.10
36710;DHT22;22694;51.040;3.684;2023-02-28T08:57:38;13.50;63.70
36710;DHT22;22694;51.040;3.684;2023-02-28T09:00:04;13.50;63.40
36710;DHT22;22694;51.040;3.684;2023-02-28T09:02:31;13.40;63.40
36710;DHT22;22694;51.040;3.684;2023-02-28T09:04:57;13.30;63.50
36710;DHT22;22694;51.040;3.684;2023-02-28T09:07:24;13.30;63.50
36710;DHT22;22694;51.040;3.684;2023-02-28T09:09:50;13.20;63.60
36710;DHT22;22694;51.040;3.684;2023-02-28T09:12:24;13.20;63.80
36710;DHT22;22694;51.040;3.684;2023-02-28T09:14:50;13.20;63.90
36710;DHT22;22694;51.040;3.684;2023-02-28T09:17:16;13.10;64.00
36710;DHT22;22694;51.040;3.684;2023-02-28T09:19:42;13.10;64.00
36710;DHT22;22694;51.040;3.684;2023-02-28T09:22:09;13.10;64.10
36710;DHT22;22694;51.040;3.684;2023-02-28T09:24:36;13.10;64.10
36710;DHT22;22694;51.040;3.684;2023-02-28T09:27:02;13.00;64.10
36710;DHT22;22694;51.040;3.684;2023-02-28T09:29:28;13.20;84.00
36710;DHT22;22694;51.040;3.684;2023-02-28T09:31:53;13.70;80.40
36710;DHT22;22694;51.040;3.684;2023-02-28T09:34:19;13.80;73.10
36710;DHT22;22694;51.040;3.684;2023-02-28T09:36:45;13.70;68.20
36710;DHT22;22694;51.040;3.684;2023-02-28T09:39:11;13.60;64.40
36710;DHT22;22694;51.040;3.684;2023-02-28T09:41:44;13.50;64.00
36710;DHT22;22694;51.040;3.684;2023-02-28T09:44:37;13.40;64.10
36710;DHT22;22694;51.040;3.684;2023-02-28T09:49:43;14.30;82.40
36710;DHT22;22694;51.040;3.684;2023-02-28T09:52:15;14.50;77.10
36710;DHT22;22694;51.040;3.684;2023-02-28T09:54:42;14.30;70.70
36710;DHT22;22694;51.040;3.684;2023-02-28T10:00:07;13.90;64.30
36710;DHT22;22694;51.040;3.684;2023-02-28T10:05:24;13.50;64.30
36710;DHT22;22694;51.040;3.684;2023-02-28T10:08:11;13.40;64.60
36710;DHT22;22694;51.040;3.684;2023-02-28T10:10:41;13.30;64.70
36710;DHT22;22694;51.040;3.684;2023-02-28T10:13:43;13.50;70.20
36710;DHT22;22694;51.040;3.684;2023-02-28T10:16:15;13.40;65.90
36710;DHT22;22694;51.040;3.684;2023-02-28T10:18:56;13.30;64.20
36710;DHT22;22694;51.040;3.684;2023-02-28T10:21:30;13.20;64.10
36710;DHT22;22694;51.040;3.684;2023-02-28T10:24:11;13.10;64.50
36710;DHT22;22694;51.040;3.684;2023-02-28T10:26:39;13.10;64.70
36710;DHT22;22694;51.040;3.684;2023-02-28T10:29:09;13.00;64.90
36710;DHT22;22694;51.040;3.684;2023-02-28T10:31:35;13.00;64.90
36710;DHT22;22694;51.040;3.684;2023-02-28T10:34:01;12.90;64.70
36710;DHT22;22694;51.040;3.684;2023-02-28T10:36:28;12.90;65.00
36710;DHT22;22694;51.040;3.684;2023-02-28T10:38:54;12.80;65.00
36710;DHT22;22694;51.040;3.684;2023-02-28T10:41:31;12.80;65.20
36710;DHT22;22694;51.040;3.684;2023-02-28T10:44:21;12.80;65.30
36710;DHT22;22694;51.040;3.684;2023-02-28T10:46:48;12.80;65.30
36710;DHT22;22694;51.040;3.684;2023-02-28T10:49:21;12.80;73.20
36710;DHT22;22694;51.040;3.684;2023-02-28T10:51:51;13.00;71.40
36710;DHT22;22694;51.040;3.684;2023-02-28T10:54:30;13.00;67.40
36710;DHT22;22694;51.040;3.684;2023-02-28T10:57:21;12.90;65.80
36710;DHT22;22694;51.040;3.684;2023-02-28T11:00:17;12.90;65.10
36710;DHT22;22694;51.040;3.684;2023-02-28T11:02:38;12.80;65.00
36710;DHT22;22694;51.040;3.684;2023-02-28T11:05:32;12.80;64.90
36710;DHT22;22694;51.040;3.684;2023-02-28T11:08:27;12.80;65.10
36710;DHT22;22694;51.040;3.684;2023-02-28T11:11:04;12.80;65.40
36710;DHT22;22694;51.040;3.684;2023-02-28T11:13:35;12.80;65.70
36710;DHT22;22694;51.040;3.684;2023-02-28T11:16:07;12.80;65.80
36710;DHT22;22694;51.040;3.684;2023-02-28T11:18:54;12.80;66.00
36710;DHT22;22694;51.040;3.684;2023-02-28T11:21:31;12.80;66.00
36710;DHT22;22694;51.040;3.684;2023-02-28T11:24:13;12.90;66.60
36710;DHT22;22694;51.040;3.684;2023-02-28T11:26:47;12.90;65.90
36710;DHT22;22694;51.040;3.684;2023-02-28T11:29:31;12.90;65.80
36710;DHT22;22694;51.040;3.684;2023-02-28T11:32:13;13.00;65.70
36710;DHT22;22694;51.040;3.684;2023-02-28T11:34:42;13.10;73.50
36710;DHT22;22694;51.040;3.684;2023-02-28T11:37:16;13.30;71.90
36710;DHT22;22694;51.040;3.684;2023-02-28T11:39:44;13.30;68.40
36710;DHT22;22694;51.040;3.684;2023-02-28T11:52:57;13.50;69.70
36710;DHT22;22694;51.040;3.684;2023-02-28T11:55:42;13.50;67.40
36710;DHT22;22694;51.040;3.684;2023-02-28T12:01:13;13.50;66.40
36710;DHT22;22694;51.040;3.684;2023-02-28T12:04:00;13.60;66.20
36710;DHT22;22694;51.040;3.684;2023-02-28T12:09:32;13.60;65.90
36710;DHT22;22694;51.040;3.684;2023-02-28T12:15:16;13.60;65.60
36710;DHT22;22694;51.040;3.684;2023-02-28T12:20:49;13.70;65.40
36710;DHT22;22694;51.040;3.684;2023-02-28T12:26:19;13.70;65.30
36710;DHT22;22694;51.040;3.684;2023-02-28T12:28:54;13.70;65.20
36710;DHT22;22694;51.040;3.684;2023-02-28T12:31:29;13.70;65.20
36710;DHT22;22694;51.040;3.684;2023-02-28T12:34:22;13.80;65.10
36710;DHT22;22694;51.040;3.684;2023-02-28T12:36:52;13.80;65.00
36710;DHT22;22694;51.040;3.684;2023-02-28T12:39:26;13.80;64.90
36710;DHT22;22694;51.040;3.684;2023-02-28T12:42:07;13.90;64.90
36710;DHT22;22694;51.040;3.684;2023-02-28T12:44:46;13.80;64.70
36710;DHT22;22694;51.040;3.684;2023-02-28T12:47:16;13.90;64.50
36710;DHT22;22694;51.040;3.684;2023-02-28T12:52:23;13.90;64.50
36710;DHT22;22694;51.040;3.684;2023-02-28T12:54:58;14.00;64.30
36710;DHT22;22694;51.040;3.684;2023-02-28T13:00:23;14.00;64.00
36710;DHT22;22694;51.040;3.684;2023-02-28T13:08:29;14.10;63.60
36710;DHT22;22694;51.040;3.684;2023-02-28T13:11:01;14.10;63.50
36710;DHT22;22694;51.040;3.684;2023-02-28T13:13:29;14.10;63.50
36710;DHT22;22694;51.040;3.684;2023-02-28T13:16:09;14.10;63.30
36710;DHT22;22694;51.040;3.684;2023-02-28T13:18:38;14.10;63.30
36710;DHT22;22694;51.040;3.684;2023-02-28T13:21:07;14.20;63.10
36710;DHT22;22694;51.040;3.684;2023-02-28T13:23:58;14.10;63.00
36710;DHT22;22694;51.040;3.684;2023-02-28T13:28:59;14.10;62.80
36710;DHT22;22694;51.040;3.684;2023-02-28T13:31:25;14.20;62.80
36710;DHT22;22694;51.040;3.684;2023-02-28T13:38:52;14.20;62.60
36710;DHT22;22694;51.040;3.684;2023-02-28T13:49:27;14.20;62.30
36710;DHT22;22694;51.040;3.684;2023-02-28T14:08:58;14.30;61.90
36710;DHT22;22694;51.040;3.684;2023-02-28T14:11:33;14.20;61.70
36710;DHT22;22694;51.040;3.684;2023-02-28T14:14:00;14.20;61.70
36710;DHT22;22694;51.040;3.684;2023-02-28T14:16:36;14.30;70.50
36710;DHT22;22694;51.040;3.684;2023-02-28T14:19:25;14.70;74.80
36710;DHT22;22694;51.040;3.684;2023-02-28T14:27:21;15.00;69.30
36710;DHT22;22694;51.040;3.684;2023-02-28T14:32:51;14.90;67.40
36710;DHT22;22694;51.040;3.684;2023-02-28T14:35:29;14.90;66.80
36710;DHT22;22694;51.040;3.684;2023-02-28T14:38:05;14.90;67.20
36710;DHT22;22694;51.040;3.684;2023-02-28T14:40:33;14.80;66.20
36710;DHT22;22694;51.040;3.684;2023-02-28T14:43:05;14.80;64.50
36710;DHT22;22694;51.040;3.684;2023-02-28T14:45:35;14.70;63.50
36710;DHT22;22694;51.040;3.684;2023-02-28T14:48:05;14.60;63.80
36710;DHT22;22694;51.040;3.684;2023-02-28T14:50:36;14.60;63.70
36710;DHT22;22694;51.040;3.684;2023-02-28T14:53:03;14.60;64.20
36710;DHT22;22694;51.040;3.684;2023-02-28T14:55:31;14.50;64.40
36710;DHT22;22694;51.040;3.684;2023-02-28T14:57:59;14.50;64.00
36710;DHT22;22694;51.040;3.684;2023-02-28T15:00:30;14.50;63.80
36710;DHT22;22694;51.040;3.684;2023-02-28T15:02:57;14.40;63.50
36710;DHT22;22694;51.040;3.684;2023-02-28T15:05:27;14.40;63.60
36710;DHT22;22694;51.040;3.684;2023-02-28T15:08:12;14.30;63.30
36710;DHT22;22694;51.040;3.684;2023-02-28T15:10:44;14.30;63.50
36710;DHT22;22694;51.040;3.684;2023-02-28T15:13:13;14.20;63.70
36710;DHT22;22694;51.040;3.684;2023-02-28T15:18:25;14.20;66.50
36710;DHT22;22694;51.040;3.684;2023-02-28T15:20:52;14.50;75.60
36710;DHT22;22694;51.040;3.684;2023-02-28T15:23:20;14.70;73.70
36710;DHT22;22694;51.040;3.684;2023-02-28T15:25:47;14.60;68.10
36710;DHT22;22694;51.040;3.684;2023-02-28T15:28:16;14.40;64.00
36710;DHT22;22694;51.040;3.684;2023-02-28T15:30:55;14.30;62.50
36710;DHT22;22694;51.040;3.684;2023-02-28T15:33:24;14.10;62.10
36710;DHT22;22694;51.040;3.684;2023-02-28T15:35:51;14.00;62.40
36710;DHT22;22694;51.040;3.684;2023-02-28T15:40:57;13.80;62.70
36710;DHT22;22694;51.040;3.684;2023-02-28T15:43:26;13.70;62.50
36710;DHT22;22694;51.040;3.684;2023-02-28T15:48:27;13.60;62.90
36710;DHT22;22694;51.040;3.684;2023-02-28T15:53:36;13.50;62.90
36710;DHT22;22694;51.040;3.684;2023-02-28T15:56:05;13.50;64.00
36710;DHT22;22694;51.040;3.684;2023-02-28T15:58:32;13.50;63.00
36710;DHT22;22694;51.040;3.684;2023-02-28T16:01:29;13.40;62.90
36710;DHT22;22694;51.040;3.684;2023-02-28T16:04:00;13.40;62.70
36710;DHT22;22694;51.040;3.684;2023-02-28T16:09:04;13.30;63.00
36710;DHT22;22694;51.040;3.684;2023-02-28T16:11:30;13.20;63.30
36710;DHT22;22694;51.040;3.684;2023-02-28T16:13:58;13.20;63.50
36710;DHT22;22694;51.040;3.684;2023-02-28T16:16:24;13.20;63.80
36710;DHT22;22694;51.040;3.684;2023-02-28T16:18:51;13.10;63.90
36710;DHT22;22694;51.040;3.684;2023-02-28T16:21:17;13.10;63.90
36710;DHT22;22694;51.040;3.684;2023-02-28T16:23:42;13.00;63.80
36710;DHT22;22694;51.040;3.684;2023-02-28T16:26:16;13.00;63.70
36710;DHT22;22694;51.040;3.684;2023-02-28T16:28:43;13.00;63.70
36710;DHT22;22694;51.040;3.684;2023-02-28T16:31:12;12.90;63.90
36710;DHT22;22694;51.040;3.684;2023-02-28T16:33:45;12.90;64.00
36710;DHT22;22694;51.040;3.684;2023-02-28T16:36:15;12.90;64.10
36710;DHT22;22694;51.040;3.684;2023-02-28T16:38:42;12.90;64.10
36710;DHT22;22694;51.040;3.684;2023-02-28T16:41:12;12.80;64.20
36710;DHT22;22694;51.040;3.684;2023-02-28T16:43:44;12.80;64.20
36710;DHT22;22694;51.040;3.684;2023-02-28T16:46:11;12.90;67.50
36710;DHT22;22694;51.040;3.684;2023-02-28T16:48:37;12.90;65.10
36710;DHT22;22694;51.040;3.684;2023-02-28T16:51:03;12.90;64.00
36710;DHT22;22694;51.040;3.684;2023-02-28T16:53:30;12.80;64.30
36710;DHT22;22694;51.040;3.684;2023-02-28T16:55:55;12.70;64.40
36710;DHT22;22694;51.040;3.684;2023-02-28T16:58:21;12.70;64.20
36710;DHT22;22694;51.040;3.684;2023-02-28T17:00:50;12.70;64.20
36710;DHT22;22694;51.040;3.684;2023-02-28T17:03:26;12.60;64.00
36710;DHT22;22694;51.040;3.684;2023-02-28T17:05:52;12.60;63.80
36710;DHT22;22694;51.040;3.684;2023-02-28T17:08:18;12.50;63.90
36710;DHT22;22694;51.040;3.684;2023-02-28T17:10:44;12.50;63.90
36710;DHT22;22694;51.040;3.684;2023-02-28T17:13:10;12.40;63.90
36710;DHT22;22694;51.040;3.684;2023-02-28T17:15:36;12.40;63.90
36710;DHT22;22694;51.040;3.684;2023-02-28T17:18:03;12.40;63.90
36710;DHT22;22694;51.040;3.684;2023-02-28T17:20:29;12.40;63.90
36710;DHT22;22694;51.040;3.684;2023-02-28T17:22:56;12.30;64.10
36710;DHT22;22694;51.040;3.684;2023-02-28T17:25:23;12.30;64.10
36710;DHT22;22694;51.040;3.684;2023-02-28T17:27:48;12.30;63.90
36710;DHT22;22694;51.040;3.684;2023-02-28T17:32:41;12.20;64.00
36710;DHT22;22694;51.040;3.684;2023-02-28T17:35:07;12.20;64.00
36710;DHT22;22694;51.040;3.684;2023-02-28T17:37:33;12.20;64.20
36710;DHT22;22694;51.040;3.684;2023-02-28T17:39:59;12.10;64.10
36710;DHT22;22694;51.040;3.684;2023-02-28T17:42:24;12.10;64.30
36710;DHT22;22694;51.040;3.684;2023-02-28T17:44:50;12.10;64.10
36710;DHT22;22694;51.040;3.684;2023-02-28T17:47:15;12.00;64.30
36710;DHT22;22694;51.040;3.684;2023-02-28T17:49:41;12.00;64.20
36710;DHT22;22694;51.040;3.684;2023-02-28T17:52:07;12.00;64.20
36710;DHT22;22694;51.040;3.684;2023-02-28T17:54:33;11.90;64.10
36710;DHT22;22694;51.040;3.684;2023-02-28T17:56:59;11.90;64.10
36710;DHT22;22694;51.040;3.684;2023-02-28T17:59:24;11.90;64.20
36710;DHT22;22694;51.040;3.684;2023-02-28T18:01:50;11.80;64.20
36710;DHT22;22694;51.040;3.684;2023-02-28T18:04:15;11.80;65.20
36710;DHT22;22694;51.040;3.684;2023-02-28T18:06:43;12.20;85.40
36710;DHT22;22694;51.040;3.684;2023-02-28T18:09:14;12.80;85.80
36710;DHT22;22694;51.040;3.684;2023-02-28T18:11:39;13.10;80.20
36710;DHT22;22694;51.040;3.684;2023-02-28T18:14:10;13.10;72.50